CA-0005 weather

CLOSED RCAF Station Lincoln Park
Calgary, Alberta, Canada

Public forecast

Using degrees Celsius for public forecast. Weather courtesy of forecast.io.

Closest aviation weather report (METAR) to RCAF Station Lincoln Park

Closest report is Calgary International Airport, 7.6 nm (14.0 km) NE. Retrieved 2019/12/07 06:00 UTC (15 minutes ago):

CYYC 070600Z 19008KT 15SM BKN150 M03/M07 A2962 RMK AC6 SLP087

Closest aviation forecast (TAF) to RCAF Station Lincoln Park

Closest forecast is Calgary International Airport, 7.6 nm (14.0 km) NE. Retrieved 2019/12/07 06:39 UTC (0 seconds ago):

TAF CYYC 070538Z 0706/0806 20006KT P6SM SCT140 BKN200 BECMG 0706/0708 28006KT FM071600 36012KT P6SM FEW008 SCT060 SCT200 PROB30 0716/0724 BKN008 FM080000 02012KT P6SM -SN SCT008 OVC060 TEMPO 0800/0806 2SM -SN BKN008 OVC060 RMK NXT FCST BY 070900Z